Time;durP1;ratioP1;P1;durP2;ratioP2;P2;SDS_P1;SDS_P2;PMS_P1;PMS_P2;Temp;Humidity;BMP_temperature;BMP_pressure;BME280_temperature;BME280_humidity;BME280_pressure;Samples;Min_cycle;Max_cycle;Signal;HPM_P1;HPM_P2
2021/08/31 00:00:06;;;;;;;1.52;1.00;;;13.50;55.60;;;;;;5032962;28;20247;-63
2021/08/31 00:02:39;;;;;;;2.15;1.30;;;13.60;56.20;;;;;;5032383;28;20243;-51
2021/08/31 00:05:10;;;;;;;2.30;0.93;;;13.50;55.50;;;;;;5033193;28;20689;-56
2021/08/31 00:07:40;;;;;;;1.42;1.17;;;13.60;55.50;;;;;;5032935;28;20250;-58
2021/08/31 00:10:11;;;;;;;1.77;1.00;;;13.60;55.50;;;;;;5032458;28;20204;-63
2021/08/31 00:12:42;;;;;;;1.58;1.00;;;13.60;55.50;;;;;;5032759;28;20240;-57
2021/08/31 00:15:13;;;;;;;1.58;0.90;;;13.60;55.50;;;;;;5031773;28;20684;-61
2021/08/31 00:17:46;;;;;;;1.42;0.90;;;13.70;55.60;;;;;;5033246;28;20239;-64
2021/08/31 00:20:16;;;;;;;1.42;1.10;;;13.70;55.50;;;;;;5032667;28;20258;-55
2021/08/31 00:22:47;;;;;;;1.17;0.93;;;13.70;55.50;;;;;;5032530;28;20211;-58
2021/08/31 00:25:17;;;;;;;2.53;1.40;;;13.70;55.50;;;;;;5032023;28;20738;-55
2021/08/31 00:27:48;;;;;;;1.70;1.00;;;13.80;55.50;;;;;;5032210;28;20208;-54
2021/08/31 00:30:18;;;;;;;1.60;1.10;;;13.80;55.50;;;;;;5032143;28;20247;-50
2021/08/31 00:32:50;;;;;;;2.25;0.90;;;13.80;55.50;;;;;;5031992;28;20239;-58
2021/08/31 00:35:21;;;;;;;1.77;1.30;;;13.80;55.50;;;;;;5031841;28;20680;-64
2021/08/31 00:37:51;;;;;;;1.23;1.00;;;13.80;55.60;;;;;;5031703;28;20303;-63
2021/08/31 00:40:22;;;;;;;1.38;1.08;;;13.80;55.70;;;;;;5032894;28;20207;-52
2021/08/31 00:42:53;;;;;;;1.92;1.10;;;13.80;55.80;;;;;;5032249;28;20239;-64
2021/08/31 00:45:24;;;;;;;2.15;1.00;;;13.90;55.80;;;;;;5032904;28;20232;-50
2021/08/31 00:47:58;;;;;;;1.10;0.90;;;13.90;55.80;;;;;;5032315;28;20319;-65
2021/08/31 00:50:28;;;;;;;1.15;1.00;;;13.90;55.80;;;;;;5031801;28;20243;-58
2021/08/31 00:52:59;;;;;;;2.53;0.98;;;13.90;55.70;;;;;;5031913;28;20211;-52
2021/08/31 00:55:29;;;;;;;1.90;1.20;;;13.90;55.60;;;;;;5031788;28;20248;-60
2021/08/31 00:58:00;;;;;;;3.33;1.33;;;14.00;55.60;;;;;;5031580;28;20691;-53
2021/08/31 01:00:30;;;;;;;1.67;0.90;;;14.00;55.60;;;;;;5031601;28;20663;-66
2021/08/31 01:03:02;;;;;;;1.63;0.90;;;14.00;55.60;;;;;;5031750;28;20243;-63
2021/08/31 01:05:34;;;;;;;1.67;0.95;;;14.00;55.60;;;;;;5031752;28;20259;-63
2021/08/31 01:08:04;;;;;;;1.40;1.13;;;14.10;55.70;;;;;;5031402;28;20251;-61
2021/08/31 01:10:34;;;;;;;1.27;1.00;;;14.10;55.70;;;;;;5031751;28;20294;-61
2021/08/31 01:13:05;;;;;;;0.80;0.80;;;14.10;55.70;;;;;;5032164;28;20244;-63
2021/08/31 01:15:35;;;;;;;2.72;0.80;;;14.10;55.80;;;;;;5031463;28;20239;-50
2021/08/31 01:18:17;;;;;;;2.78;1.33;;;14.10;55.80;;;;;;5030758;28;20330;-63
2021/08/31 01:20:47;;;;;;;3.05;1.02;;;14.20;55.80;;;;;;5032330;28;20239;-62
2021/08/31 01:23:18;;;;;;;2.38;1.00;;;14.20;55.80;;;;;;5030994;28;20430;-61
2021/08/31 01:25:50;;;;;;;1.27;1.00;;;14.20;55.90;;;;;;5031845;28;20329;-62
2021/08/31 01:28:21;;;;;;;1.35;1.00;;;14.20;55.90;;;;;;5031211;28;20259;-63
2021/08/31 01:30:52;;;;;;;2.05;0.98;;;14.30;55.90;;;;;;5031372;28;20262;-52
2021/08/31 01:33:23;;;;;;;1.27;0.95;;;14.30;55.90;;;;;;5030984;28;20247;-60
2021/08/31 01:35:53;;;;;;;2.15;1.13;;;14.30;55.80;;;;;;5031766;28;20239;-53
2021/08/31 01:38:23;;;;;;;1.48;0.77;;;14.30;55.80;;;;;;5031417;28;20628;-53
2021/08/31 01:40:56;;;;;;;1.95;1.00;;;14.40;55.80;;;;;;5030954;28;20694;-53
2021/08/31 01:43:26;;;;;;;3.70;1.58;;;14.40;55.80;;;;;;5031119;28;20746;-60
2021/08/31 01:45:57;;;;;;;2.33;1.60;;;14.40;55.80;;;;;;5030745;28;20262;-63
2021/08/31 01:48:27;;;;;;;4.72;1.88;;;14.40;55.80;;;;;;5031451;28;20258;-63
2021/08/31 01:50:58;;;;;;;5.32;2.20;;;14.40;55.80;;;;;;5030889;28;20299;-63
2021/08/31 01:53:28;;;;;;;3.10;1.65;;;14.50;55.90;;;;;;5030038;28;20236;-60
2021/08/31 01:56:00;;;;;;;2.63;1.50;;;14.50;56.00;;;;;;5030454;28;20240;-55
2021/08/31 01:58:31;;;;;;;3.15;1.58;;;14.50;56.00;;;;;;5031233;28;20259;-59
2021/08/31 02:01:01;;;;;;;2.38;1.38;;;14.50;56.00;;;;;;5030815;28;20240;-54
2021/08/31 02:03:32;;;;;;;4.18;1.80;;;14.50;56.00;;;;;;5031404;28;20203;-45
2021/08/31 02:06:02;;;;;;;2.40;1.60;;;14.60;56.00;;;;;;5031193;28;20432;-60
2021/08/31 02:08:33;;;;;;;2.88;1.67;;;14.60;56.00;;;;;;5030869;28;20255;-60
2021/08/31 02:11:05;;;;;;;2.55;1.45;;;14.60;56.00;;;;;;5030892;28;20235;-56
2021/08/31 02:13:35;;;;;;;2.30;1.25;;;14.60;55.90;;;;;;5031032;28;20240;-63
2021/08/31 02:16:08;;;;;;;2.38;1.50;;;14.70;55.90;;;;;;5030109;28;20590;-63
2021/08/31 02:18:40;;;;;;;3.42;1.70;;;14.70;55.80;;;;;;5030143;28;20264;-63
2021/08/31 02:21:10;;;;;;;2.72;1.40;;;14.70;55.80;;;;;;5030633;28;20583;-56
2021/08/31 02:23:40;;;;;;;3.05;1.70;;;14.80;55.80;;;;;;5030138;28;20242;-63
2021/08/31 02:26:13;;;;;;;3.55;2.10;;;14.80;55.80;;;;;;5030957;28;20669;-63
2021/08/31 02:28:43;;;;;;;3.40;1.92;;;14.80;55.80;;;;;;5029735;28;20668;-55
2021/08/31 02:31:14;;;;;;;3.25;2.00;;;14.80;55.80;;;;;;5030940;28;20258;-59
2021/08/31 02:33:44;;;;;;;4.38;1.95;;;14.90;55.80;;;;;;5029981;28;20752;-57
2021/08/31 02:36:14;;;;;;;3.35;1.65;;;14.90;55.70;;;;;;5028790;28;20676;-57
2021/08/31 02:38:45;;;;;;;3.90;2.22;;;14.90;55.70;;;;;;5028666;28;20322;-54
2021/08/31 02:41:17;;;;;;;3.90;1.75;;;14.90;55.70;;;;;;5029877;28;20295;-53
2021/08/31 02:43:48;;;;;;;3.75;1.92;;;15.00;55.60;;;;;;5029689;28;20618;-64
2021/08/31 02:46:18;;;;;;;3.42;1.83;;;15.00;55.50;;;;;;5030287;28;20636;-55
2021/08/31 02:48:48;;;;;;;3.92;2.00;;;15.00;55.50;;;;;;5029684;28;20649;-62
2021/08/31 02:51:19;;;;;;;3.92;1.75;;;15.00;55.50;;;;;;5030799;28;20622;-51
2021/08/31 02:53:49;;;;;;;3.90;1.80;;;15.00;55.50;;;;;;5030202;28;20629;-61
2021/08/31 02:56:22;;;;;;;3.65;1.77;;;15.00;55.40;;;;;;5030347;28;20200;-62
2021/08/31 02:58:52;;;;;;;2.92;1.83;;;15.10;55.50;;;;;;5030630;28;20670;-64
2021/08/31 03:01:34;;;;;;;3.17;1.70;;;15.10;55.40;;;;;;5030388;28;20212;-57
2021/08/31 03:04:04;;;;;;;2.50;1.80;;;15.10;55.40;;;;;;5029532;28;20216;-55
2021/08/31 03:06:35;;;;;;;3.13;1.88;;;15.10;55.40;;;;;;5029376;28;20303;-52
2021/08/31 03:09:05;;;;;;;2.95;1.73;;;15.10;55.30;;;;;;5030569;28;20272;-46
2021/08/31 03:11:38;;;;;;;2.97;1.75;;;15.10;55.30;;;;;;5030325;28;20248;-54
2021/08/31 03:14:08;;;;;;;2.63;1.80;;;15.20;55.30;;;;;;5030027;28;20239;-46
2021/08/31 03:16:38;;;;;;;4.95;1.92;;;15.20;55.30;;;;;;5009905;28;20251;-52
2021/08/31 03:19:09;;;;;;;4.13;2.17;;;15.20;55.30;;;;;;5009916;28;20260;-58
2021/08/31 03:21:39;;;;;;;4.35;2.05;;;15.20;55.30;;;;;;5010021;28;20256;-60
2021/08/31 03:24:10;;;;;;;2.58;2.00;;;15.20;55.20;;;;;;5027238;28;20232;-64
2021/08/31 03:26:42;;;;;;;3.65;1.98;;;15.20;55.30;;;;;;5029844;28;20220;-61
2021/08/31 03:29:13;;;;;;;3.72;1.90;;;15.20;55.30;;;;;;5029456;28;20263;-64
2021/08/31 03:31:43;;;;;;;4.22;1.90;;;15.20;55.30;;;;;;5031833;28;20664;-58
2021/08/31 03:34:13;;;;;;;2.58;1.65;;;15.20;55.30;;;;;;5032245;28;20295;-60
2021/08/31 03:36:44;;;;;;;4.05;1.95;;;15.30;55.30;;;;;;5033561;28;20667;-62
2021/08/31 03:39:15;;;;;;;4.15;1.90;;;15.30;55.30;;;;;;5033505;28;20232;-63
2021/08/31 03:41:47;;;;;;;3.05;1.80;;;15.30;55.30;;;;;;5033292;28;20236;-61
2021/08/31 03:44:18;;;;;;;2.88;2.20;;;15.30;55.30;;;;;;5032201;28;20303;-61
2021/08/31 03:46:48;;;;;;;2.47;1.73;;;15.30;55.90;;;;;;5033780;28;20263;-60
2021/08/31 03:49:18;;;;;;;4.38;2.10;;;15.30;55.30;;;;;;5033500;28;20314;-64
2021/08/31 03:51:49;;;;;;;3.78;2.20;;;15.30;55.20;;;;;;5033587;28;20239;-60
2021/08/31 03:54:19;;;;;;;3.25;2.00;;;15.30;55.80;;;;;;5033329;28;20240;-57
2021/08/31 03:56:52;;;;;;;2.75;1.70;;;15.40;55.20;;;;;;5033450;28;20231;-56
2021/08/31 03:59:22;;;;;;;2.63;1.95;;;15.40;55.20;;;;;;5037272;28;20265;-59
2021/08/31 04:01:52;;;;;;;2.88;1.83;;;15.40;55.20;;;;;;5061265;28;20234;-59
2021/08/31 04:04:23;;;;;;;2.92;2.00;;;15.40;55.10;;;;;;5083728;28;20206;-56
2021/08/31 04:06:53;;;;;;;3.83;2.13;;;15.40;55.00;;;;;;5050384;28;20286;-62
2021/08/31 04:09:24;;;;;;;2.72;2.15;;;15.40;54.90;;;;;;5033289;28;20268;-53
2021/08/31 04:11:56;;;;;;;4.00;2.40;;;15.40;54.90;;;;;;5033120;28;20206;-45
2021/08/31 04:14:27;;;;;;;5.35;2.50;;;15.40;54.80;;;;;;5032612;28;20192;-50
2021/08/31 04:16:58;;;;;;;3.53;2.13;;;15.40;54.80;;;;;;5033332;28;20210;-58
2021/08/31 04:19:28;;;;;;;4.68;2.78;;;15.40;54.80;;;;;;5032288;28;20222;-47
2021/08/31 04:21:59;;;;;;;3.53;2.42;;;15.40;54.80;;;;;;5032794;28;20227;-56
2021/08/31 04:24:29;;;;;;;8.00;5.53;;;15.40;54.70;;;;;;5031644;28;20307;-62
2021/08/31 04:27:01;;;;;;;4.85;3.70;;;15.40;54.60;;;;;;5032301;28;20303;-56
2021/08/31 04:29:32;;;;;;;4.57;3.47;;;15.40;54.60;;;;;;5031552;28;20303;-58
2021/08/31 04:32:02;;;;;;;8.40;5.38;;;15.40;54.50;;;;;;5032260;28;20686;-58
2021/08/31 04:34:33;;;;;;;6.45;4.90;;;15.40;54.50;;;;;;5033581;28;20265;-47
2021/08/31 04:37:03;;;;;;;7.03;4.97;;;15.40;54.30;;;;;;5033216;28;20228;-48
2021/08/31 04:39:34;;;;;;;8.00;5.45;;;15.40;54.30;;;;;;5032589;28;20255;-55
2021/08/31 04:42:07;;;;;;;6.57;4.97;;;15.40;54.30;;;;;;5033121;28;20232;-64
2021/08/31 04:44:38;;;;;;;10.43;6.43;;;15.40;54.30;;;;;;5032419;28;20233;-58
2021/08/31 04:47:08;;;;;;;8.63;6.75;;;15.40;54.20;;;;;;5033022;28;20263;-59
2021/08/31 04:49:39;;;;;;;8.10;5.38;;;15.40;54.20;;;;;;5032110;28;20516;-61
2021/08/31 04:52:10;;;;;;;10.35;7.60;;;15.40;54.10;;;;;;5031613;28;20204;-65
2021/08/31 04:54:41;;;;;;;9.82;6.65;;;15.40;54.10;;;;;;5032455;28;20203;-61
2021/08/31 04:57:13;;;;;;;9.70;6.68;;;15.40;54.00;;;;;;5032260;28;20598;-64
2021/08/31 04:59:44;;;;;;;9.70;6.15;;;15.40;54.20;;;;;;5031053;28;20216;-63
2021/08/31 05:02:15;;;;;;;8.93;6.25;;;15.40;53.90;;;;;;5031897;28;20197;-63
2021/08/31 05:04:45;;;;;;;7.88;5.85;;;15.40;53.90;;;;;;5031369;28;20196;-64
2021/08/31 05:07:16;;;;;;;8.20;5.55;;;15.40;53.90;;;;;;5034635;28;20220;-59
2021/08/31 05:09:46;;;;;;;6.13;5.03;;;15.40;53.90;;;;;;5031892;28;20259;-60
2021/08/31 05:12:19;;;;;;;8.27;5.97;;;15.30;53.90;;;;;;5031526;28;20200;-53
2021/08/31 05:14:49;;;;;;;8.90;5.35;;;15.30;53.90;;;;;;5031575;28;20315;-56
2021/08/31 05:17:20;;;;;;;7.20;5.70;;;15.30;53.90;;;;;;5031752;28;20224;-58
2021/08/31 05:19:50;;;;;;;9.55;5.65;;;15.30;54.00;;;;;;5032162;28;20252;-52
2021/08/31 05:22:44;;;;;;;9.75;5.90;;;15.30;54.10;;;;;;5031867;28;20228;-62
2021/08/31 05:25:14;;;;;;;7.13;5.43;;;15.30;54.10;;;;;;5031671;28;20222;-60
2021/08/31 05:27:47;;;;;;;7.40;5.13;;;15.30;54.10;;;;;;5030850;28;20223;-57
2021/08/31 05:30:18;;;;;;;9.85;6.13;;;15.30;54.10;;;;;;5031801;28;20562;-60
2021/08/31 05:32:49;;;;;;;10.70;6.25;;;15.30;54.10;;;;;;5030782;28;20204;-50
2021/08/31 05:35:19;;;;;;;9.95;6.55;;;15.30;54.10;;;;;;5031095;28;20204;-52
2021/08/31 05:37:50;;;;;;;10.82;6.65;;;15.30;54.10;;;;;;5031402;28;20216;-57
2021/08/31 05:40:22;;;;;;;8.43;6.03;;;15.30;54.10;;;;;;5031156;28;20196;-63
2021/08/31 05:42:54;;;;;;;9.38;6.65;;;15.30;54.10;;;;;;5030687;28;20214;-63
2021/08/31 05:45:25;;;;;;;7.95;5.90;;;15.30;54.10;;;;;;5032273;28;20207;-61
2021/08/31 05:47:56;;;;;;;9.52;5.88;;;15.30;54.10;;;;;;5031149;28;20227;-62
2021/08/31 05:50:26;;;;;;;9.05;6.18;;;15.30;54.00;;;;;;5030645;28;20571;-64
2021/08/31 05:52:57;;;;;;;7.63;5.65;;;15.30;54.10;;;;;;5030717;28;20206;-64
2021/08/31 05:55:28;;;;;;;8.35;6.40;;;15.20;54.10;;;;;;5029052;28;20200;-53
2021/08/31 05:58:00;;;;;;;8.77;6.15;;;15.20;54.10;;;;;;5030581;28;20590;-61
2021/08/31 06:00:30;;;;;;;9.32;6.75;;;15.20;54.10;;;;;;5030151;28;20235;-55
2021/08/31 06:03:55;;;;;;;8.35;7.07;;;15.20;54.20;;;;;;5030690;28;20227;-66
2021/08/31 06:06:26;;;;;;;8.65;6.50;;;15.20;54.10;;;;;;5030565;28;20227;-59
2021/08/31 06:08:57;;;;;;;8.13;6.70;;;15.20;54.10;;;;;;5031067;28;20277;-66
2021/08/31 06:11:29;;;;;;;11.43;7.25;;;15.20;54.20;;;;;;5039352;23;23176;-54
2021/08/31 06:14:02;;;;;;;10.68;7.20;;;15.20;54.20;;;;;;4998507;28;20219;-61
2021/08/31 06:16:33;;;;;;;10.07;7.63;;;15.20;54.30;;;;;;4990755;28;20202;-58
2021/08/31 06:19:03;;;;;;;8.88;6.82;;;15.20;54.20;;;;;;4990865;28;20227;-61
2021/08/31 06:21:34;;;;;;;10.13;6.78;;;15.20;54.20;;;;;;4990644;28;20220;-59
2021/08/31 06:24:05;;;;;;;9.15;6.93;;;15.20;54.20;;;;;;4998567;28;20205;-61
2021/08/31 06:26:35;;;;;;;8.63;6.40;;;15.20;54.20;;;;;;4990685;28;20229;-53
2021/08/31 06:29:08;;;;;;;8.55;6.60;;;15.10;54.10;;;;;;4990191;28;20228;-49
2021/08/31 06:31:39;;;;;;;8.82;6.78;;;15.10;54.10;;;;;;4991521;28;20240;-58
2021/08/31 06:34:10;;;;;;;9.48;6.47;;;15.10;54.20;;;;;;4990508;28;20201;-62
2021/08/31 06:36:40;;;;;;;7.57;6.38;;;15.10;54.30;;;;;;4990555;28;20211;-54
2021/08/31 06:39:11;;;;;;;8.05;6.15;;;15.10;54.30;;;;;;4990864;28;20217;-60
2021/08/31 06:41:42;;;;;;;8.15;6.93;;;15.10;54.30;;;;;;4991338;28;20198;-62
2021/08/31 06:44:14;;;;;;;7.65;6.00;;;15.10;54.30;;;;;;4990459;28;20205;-63
2021/08/31 06:46:45;;;;;;;7.70;6.03;;;15.10;54.30;;;;;;4990831;28;20225;-62
2021/08/31 06:49:16;;;;;;;7.53;6.28;;;15.00;54.30;;;;;;4990739;28;20213;-61
2021/08/31 06:51:47;;;;;;;7.47;5.88;;;15.00;54.30;;;;;;4990240;28;20608;-49
2021/08/31 06:54:17;;;;;;;6.65;5.57;;;15.00;54.30;;;;;;4990776;28;20212;-62
2021/08/31 06:56:47;;;;;;;8.52;6.28;;;15.00;54.30;;;;;;4991136;28;20229;-58
2021/08/31 06:59:20;;;;;;;8.80;6.85;;;15.00;54.30;;;;;;4990787;28;20280;-62
2021/08/31 07:01:50;;;;;;;6.65;5.60;;;15.00;54.30;;;;;;4991448;28;20592;-57
2021/08/31 07:04:21;;;;;;;6.65;5.80;;;14.90;54.20;;;;;;4991503;28;20360;-59
2021/08/31 07:06:51;;;;;;;7.03;5.72;;;14.90;54.20;;;;;;4992662;28;20651;-63
2021/08/31 07:09:23;;;;;;;9.95;6.28;;;15.00;54.20;;;;;;4995210;28;20249;-61
2021/08/31 07:11:55;;;;;;;7.55;5.93;;;14.90;54.20;;;;;;4995687;28;20213;-59
2021/08/31 07:14:27;;;;;;;7.32;5.82;;;14.90;54.20;;;;;;4995269;28;20252;-57
2021/08/31 07:17:01;;;;;;;8.35;6.43;;;14.90;54.20;;;;;;4995469;28;20193;-62
2021/08/31 07:19:31;;;;;;;9.65;6.10;;;14.90;54.20;;;;;;5007603;28;20217;-62
2021/08/31 07:22:02;;;;;;;9.15;6.60;;;14.80;54.20;;;;;;5015041;28;20236;-58
2021/08/31 07:24:32;;;;;;;9.25;6.72;;;14.80;54.20;;;;;;5015164;28;20236;-60
2021/08/31 07:27:03;;;;;;;10.15;6.32;;;14.80;54.20;;;;;;5014926;28;20316;-61
2021/08/31 07:29:35;;;;;;;7.80;6.28;;;14.80;54.20;;;;;;5014510;28;20271;-60
2021/08/31 07:32:06;;;;;;;9.40;6.63;;;14.80;54.30;;;;;;5014328;28;20311;-62
2021/08/31 07:34:38;;;;;;;9.40;6.90;;;14.80;54.20;;;;;;5013775;28;20259;-62
2021/08/31 07:37:09;;;;;;;10.45;6.88;;;14.70;54.20;;;;;;5013910;28;20204;-60
2021/08/31 07:39:39;;;;;;;8.73;6.45;;;14.70;54.20;;;;;;5014494;28;20306;-60
2021/08/31 07:42:10;;;;;;;9.35;6.93;;;14.70;54.30;;;;;;5014227;28;20228;-61
2021/08/31 07:44:42;;;;;;;9.23;6.95;;;14.70;54.30;;;;;;5014107;28;20255;-62
2021/08/31 07:47:13;;;;;;;7.88;6.32;;;14.70;54.40;;;;;;5013273;28;20235;-62
2021/08/31 07:49:44;;;;;;;8.75;5.85;;;14.70;54.50;;;;;;5013971;28;20243;-59
2021/08/31 07:52:14;;;;;;;8.55;6.38;;;14.70;54.40;;;;;;5014269;28;20207;-62
2021/08/31 07:54:45;;;;;;;9.45;5.90;;;14.70;54.40;;;;;;5014464;28;20232;-62
2021/08/31 07:57:15;;;;;;;8.20;6.18;;;14.60;54.30;;;;;;5014434;28;20280;-61
2021/08/31 07:59:47;;;;;;;9.07;6.35;;;14.70;54.40;;;;;;5014286;28;20255;-61
2021/08/31 08:02:18;;;;;;;9.70;6.45;;;14.60;54.40;;;;;;5014402;28;20231;-62
2021/08/31 08:04:48;;;;;;;10.82;6.35;;;14.60;54.40;;;;;;5014184;28;20283;-59
2021/08/31 08:07:32;;;;;;;8.05;6.35;;;14.60;54.40;;;;;;5014097;28;20256;-61
2021/08/31 08:10:03;;;;;;;9.52;5.82;;;14.60;54.40;;;;;;5012669;28;20649;-61
2021/08/31 08:12:33;;;;;;;7.25;5.97;;;14.50;54.40;;;;;;5024553;22;20224;-63
2021/08/31 08:15:14;;;;;;;8.30;5.38;;;14.50;54.40;;;;;;5012677;28;20575;-64
2021/08/31 08:17:48;;;;;;;6.90;5.50;;;14.50;54.40;;;;;;4999257;28;20204;-56
2021/08/31 08:20:18;;;;;;;6.38;5.43;;;14.50;54.50;;;;;;4994323;28;20201;-57
2021/08/31 08:22:49;;;;;;;7.97;5.35;;;14.50;54.70;;;;;;4994607;28;20284;-65
2021/08/31 08:25:19;;;;;;;8.48;5.82;;;14.50;54.80;;;;;;4993660;28;20620;-63
2021/08/31 08:27:50;;;;;;;6.43;5.10;;;14.50;54.90;;;;;;5000109;28;20223;-55
2021/08/31 08:30:22;;;;;;;9.90;5.88;;;14.50;54.90;;;;;;4992078;28;20998;-57
2021/08/31 08:32:53;;;;;;;8.00;5.57;;;14.50;54.90;;;;;;4993254;28;20198;-60
2021/08/31 08:35:24;;;;;;;7.90;5.80;;;14.40;54.80;;;;;;4992657;28;20237;-48
2021/08/31 08:37:57;;;;;;;8.32;6.13;;;14.50;54.80;;;;;;4993050;28;20705;-66
2021/08/31 08:40:28;;;;;;;7.68;5.57;;;14.50;54.80;;;;;;4992328;28;20194;-57
2021/08/31 08:42:58;;;;;;;7.30;5.40;;;14.40;54.80;;;;;;4991640;28;20201;-59
2021/08/31 08:45:31;;;;;;;8.45;5.35;;;14.40;54.80;;;;;;4993074;28;20201;-66
2021/08/31 08:48:02;;;;;;;7.75;5.30;;;14.40;54.80;;;;;;4992976;28;20332;-66
2021/08/31 08:50:32;;;;;;;6.50;5.22;;;14.40;54.80;;;;;;5010398;28;20630;-62
2021/08/31 08:53:05;;;;;;;8.18;5.70;;;14.40;54.80;;;;;;5011706;28;20630;-54
2021/08/31 08:55:36;;;;;;;7.57;5.20;;;14.40;54.80;;;;;;5010908;28;20193;-61
2021/08/31 08:58:06;;;;;;;7.68;5.60;;;14.30;54.80;;;;;;5011589;28;20618;-63
2021/08/31 09:00:58;;;;;;;8.00;5.22;;;14.30;54.80;;;;;;5012302;28;20247;-55
2021/08/31 09:03:28;;;;;;;8.18;5.07;;;14.30;54.80;;;;;;5011937;28;20200;-57
2021/08/31 09:06:09;;;;;;;7.03;5.60;;;14.30;54.70;;;;;;5011105;28;20247;-52
2021/08/31 09:08:43;;;;;;;9.15;6.10;;;14.30;54.80;;;;;;4990947;28;20323;-57
2021/08/31 09:13:44;;;;;;;6.75;5.35;;;14.30;54.80;;;;;;4990837;28;20225;-55
2021/08/31 09:16:28;;;;;;;6.70;4.70;;;14.20;54.70;;;;;;4991475;28;20236;-52
2021/08/31 09:18:58;;;;;;;6.80;4.70;;;14.20;54.70;;;;;;4994429;28;20213;-55
2021/08/31 09:21:29;;;;;;;8.27;5.63;;;14.20;54.70;;;;;;5002520;28;20377;-55
2021/08/31 09:24:01;;;;;;;5.95;5.07;;;14.20;54.70;;;;;;5011646;28;20532;-46
2021/08/31 09:26:39;;;;;;;6.75;4.95;;;14.20;54.70;;;;;;5011980;28;20231;-54
2021/08/31 09:29:19;;;;;;;7.43;5.15;;;14.20;54.80;;;;;;5011190;28;20315;-49
2021/08/31 09:31:53;;;;;;;7.47;5.85;;;14.10;54.70;;;;;;5010610;28;20292;-50
2021/08/31 09:34:41;;;;;;;8.20;5.68;;;14.10;54.70;;;;;;5010554;28;20764;-55
2021/08/31 09:37:36;;;;;;;6.10;5.00;;;14.10;54.80;;;;;;5010151;28;20228;-46
2021/08/31 09:40:16;;;;;;;6.65;5.22;;;14.10;54.80;;;;;;5011762;28;20295;-48
2021/08/31 09:43:03;;;;;;;6.85;4.93;;;14.10;54.70;;;;;;5010918;28;20280;-48
2021/08/31 09:45:34;;;;;;;6.40;4.82;;;14.10;54.80;;;;;;5010775;28;20197;-47
2021/08/31 09:48:07;;;;;;;6.82;5.25;;;14.10;54.80;;;;;;5011253;28;20221;-52
2021/08/31 09:50:39;;;;;;;4.97;4.15;;;14.10;54.80;;;;;;5011311;28;20287;-53
2021/08/31 09:53:12;;;;;;;6.40;4.90;;;14.10;54.80;;;;;;5012241;28;20287;-53
2021/08/31 09:55:42;;;;;;;8.75;5.38;;;14.00;54.80;;;;;;5010739;28;20638;-54
2021/08/31 09:58:14;;;;;;;47.72;7.90;;;14.00;54.80;;;;;;5011274;28;20642;-46
2021/08/31 10:00:45;;;;;;;43.53;7.85;;;14.00;54.80;;;;;;5011091;28;20236;-53
2021/08/31 10:03:17;;;;;;;35.65;7.70;;;14.00;54.90;;;;;;5011916;28;20201;-44
2021/08/31 10:05:48;;;;;;;30.20;6.63;;;14.00;54.90;;;;;;5010900;28;20259;-50
2021/08/31 10:08:18;;;;;;;21.77;5.80;;;14.00;54.90;;;;;;5010392;28;20659;-51
2021/08/31 10:10:49;;;;;;;18.33;6.03;;;14.00;54.90;;;;;;5010985;28;20243;-49
2021/08/31 10:13:20;;;;;;;13.93;5.57;;;14.00;54.90;;;;;;5011325;28;20236;-56
2021/08/31 10:15:51;;;;;;;17.98;5.43;;;14.00;54.90;;;;;;4997556;28;20236;-54
2021/08/31 10:18:24;;;;;;;11.38;5.15;;;14.00;54.90;;;;;;4991485;28;20267;-52
2021/08/31 10:20:55;;;;;;;16.58;5.80;;;14.00;54.90;;;;;;4990520;28;20333;-52
2021/08/31 10:23:29;;;;;;;12.77;5.28;;;14.00;54.90;;;;;;4991249;28;20364;-57
2021/08/31 10:26:28;;;;;;;10.20;4.75;;;14.00;54.90;;;;;;4991004;28;20202;-56
2021/08/31 10:29:29;;;;;;;10.48;5.07;;;14.00;55.00;;;;;;4990087;28;20237;-53
2021/08/31 10:32:00;;;;;;;11.73;5.03;;;14.00;54.90;;;;;;4991961;28;20232;-52
2021/08/31 10:34:43;;;;;;;7.50;4.97;;;13.90;54.90;;;;;;4991786;28;20206;-45
2021/08/31 10:37:15;;;;;;;9.77;4.57;;;13.90;54.90;;;;;;4991521;28;20237;-50
2021/08/31 10:39:47;;;;;;;8.63;5.07;;;13.90;55.00;;;;;;4991775;28;20295;-48
2021/08/31 10:42:44;;;;;;;14.88;4.80;;;13.90;55.00;;;;;;4990759;28;20629;-50
2021/08/31 10:45:44;;;;;;;7.50;5.30;;;13.90;55.00;;;;;;4991220;28;20205;-43
2021/08/31 10:48:43;;;;;;;8.35;4.97;;;13.90;55.00;;;;;;4969742;28;20263;-45
2021/08/31 10:51:17;;;;;;;8.45;4.72;;;13.80;54.90;;;;;;4950073;29;20382;-51
2021/08/31 10:53:48;;;;;;;9.68;4.88;;;13.80;54.90;;;;;;4983457;28;20264;-49
2021/08/31 10:56:31;;;;;;;10.15;5.32;;;13.90;55.10;;;;;;4991644;28;20224;-51
2021/08/31 10:59:02;;;;;;;6.22;4.68;;;13.90;55.00;;;;;;4991837;28;20259;-43
2021/08/31 11:01:39;;;;;;;8.95;4.75;;;13.80;55.00;;;;;;4992024;28;20259;-45
2021/08/31 11:04:28;;;;;;;10.77;4.60;;;13.90;55.00;;;;;;4991957;28;20255;-45
2021/08/31 11:07:02;;;;;;;8.98;5.13;;;13.80;55.00;;;;;;4991824;28;20220;-45
2021/08/31 11:09:32;;;;;;;8.50;5.22;;;13.90;55.00;;;;;;4991072;28;20319;-50
2021/08/31 11:12:07;;;;;;;8.40;4.78;;;13.90;55.10;;;;;;4991615;28;20244;-49
2021/08/31 11:14:49;;;;;;;7.55;4.70;;;13.90;55.00;;;;;;4991367;28;20639;-54
2021/08/31 11:17:37;;;;;;;8.18;4.50;;;13.90;55.00;;;;;;4991777;28;20228;-50
2021/08/31 11:20:24;;;;;;;7.70;4.40;;;13.80;55.00;;;;;;4991284;28;20194;-50
2021/08/31 11:23:06;;;;;;;7.53;4.63;;;13.80;55.00;;;;;;4991356;28;20232;-50
2021/08/31 11:25:38;;;;;;;5.82;4.18;;;13.80;55.00;;;;;;4990784;28;20237;-49
2021/08/31 11:28:09;;;;;;;8.40;4.32;;;13.80;55.00;;;;;;4991192;28;20233;-54
2021/08/31 11:30:50;;;;;;;7.35;4.35;;;13.80;55.00;;;;;;4991381;28;20289;-53
2021/08/31 11:33:22;;;;;;;10.52;4.50;;;13.80;55.00;;;;;;4990618;28;20255;-57
2021/08/31 11:35:55;;;;;;;8.68;4.57;;;13.80;55.00;;;;;;4990292;28;20232;-55
2021/08/31 11:38:34;;;;;;;7.28;4.00;;;13.80;55.00;;;;;;4990550;28;20647;-57
2021/08/31 11:41:19;;;;;;;6.53;4.30;;;13.80;55.00;;;;;;4990513;28;20197;-53
2021/08/31 11:43:50;;;;;;;7.43;4.30;;;13.80;55.00;;;;;;4990768;28;20233;-54
2021/08/31 11:46:24;;;;;;;8.75;4.30;;;13.80;55.00;;;;;;4990796;28;20248;-52
2021/08/31 11:49:09;;;;;;;5.72;3.97;;;13.80;55.00;;;;;;4990552;28;20349;-57
2021/08/31 11:51:39;;;;;;;6.72;4.32;;;13.80;55.00;;;;;;4990659;28;20194;-57
2021/08/31 11:54:12;;;;;;;6.07;3.80;;;13.80;55.00;;;;;;4993057;28;20197;-56
2021/08/31 11:56:42;;;;;;;8.20;3.90;;;13.80;55.00;;;;;;4994693;28;20298;-57
2021/08/31 11:59:13;;;;;;;6.28;4.38;;;13.80;55.00;;;;;;4994750;28;20256;-57
2021/08/31 12:01:43;;;;;;;6.65;4.15;;;13.80;55.00;;;;;;4994645;28;20241;-57
2021/08/31 12:04:19;;;;;;;4.78;3.35;;;13.80;55.00;;;;;;4994322;28;20290;-57
2021/08/31 12:06:50;;;;;;;8.05;4.28;;;13.80;55.00;;;;;;4994123;28;20225;-57
2021/08/31 12:09:23;;;;;;;5.85;3.90;;;13.80;55.00;;;;;;4994129;28;20341;-57
2021/08/31 12:11:53;;;;;;;6.38;3.70;;;13.80;55.10;;;;;;5009227;22;20480;-60
2021/08/31 12:14:23;;;;;;;5.05;3.70;;;13.70;55.00;;;;;;5013674;28;20232;-60
2021/08/31 12:16:54;;;;;;;6.75;3.55;;;13.70;55.00;;;;;;4997675;28;20229;-60
2021/08/31 12:19:25;;;;;;;7.00;3.58;;;13.70;55.00;;;;;;4994092;28;20245;-60
2021/08/31 12:22:12;;;;;;;5.05;3.83;;;13.70;55.00;;;;;;4993628;28;20208;-59
2021/08/31 12:24:44;;;;;;;5.65;3.70;;;13.80;55.00;;;;;;4994297;28;20236;-59
2021/08/31 12:27:15;;;;;;;5.60;3.35;;;13.80;55.00;;;;;;4994291;28;20244;-60
2021/08/31 12:29:56;;;;;;;6.07;3.58;;;13.80;55.00;;;;;;4994724;28;20269;-59
2021/08/31 12:32:27;;;;;;;4.90;3.80;;;13.80;55.00;;;;;;4994184;28;20204;-60
2021/08/31 12:34:58;;;;;;;6.05;3.60;;;13.80;55.00;;;;;;4993119;28;20292;-54
2021/08/31 12:37:30;;;;;;;4.68;3.47;;;13.80;55.00;;;;;;4993181;28;20240;-60
2021/08/31 12:40:18;;;;;;;5.25;3.80;;;13.70;55.00;;;;;;4993322;28;20209;-59
2021/08/31 12:42:49;;;;;;;4.18;3.35;;;13.70;55.00;;;;;;4993446;28;20197;-59
2021/08/31 12:45:28;;;;;;;5.90;3.60;;;13.70;55.00;;;;;;4993761;28;20237;-56
2021/08/31 12:47:58;;;;;;;4.43;3.17;;;13.70;55.00;;;;;;4993342;28;20480;-52
2021/08/31 12:50:29;;;;;;;4.47;3.50;;;13.70;55.00;;;;;;4993012;28;20237;-59
2021/08/31 12:53:03;;;;;;;3.70;2.97;;;13.70;55.00;;;;;;4993457;28;20237;-56
2021/08/31 12:55:36;;;;;;;5.32;3.45;;;13.70;55.00;;;;;;4993646;28;20228;-57
2021/08/31 12:58:27;;;;;;;5.30;3.28;;;13.70;55.00;;;;;;4993299;28;20651;-59
2021/08/31 13:01:16;;;;;;;5.22;2.83;;;13.70;55.00;;;;;;4993170;28;20661;-57
2021/08/31 13:03:48;;;;;;;3.75;3.30;;;13.70;55.00;;;;;;4993132;28;20252;-57
2021/08/31 13:06:37;;;;;;;3.40;2.97;;;13.70;54.90;;;;;;4993035;28;20200;-59
2021/08/31 13:09:10;;;;;;;4.28;3.25;;;13.70;55.00;;;;;;4992753;28;20756;-51
2021/08/31 13:11:43;;;;;;;4.15;3.40;;;13.70;54.90;;;;;;4993240;28;20196;-58
2021/08/31 13:14:13;;;;;;;3.72;2.95;;;13.70;54.90;;;;;;4992291;28;20236;-59
2021/08/31 13:16:44;;;;;;;3.92;3.25;;;13.70;54.90;;;;;;4992885;28;20229;-59